Maple Ridge, Canada
Current Conditions -  °F | °C
As of 12:51 AM on Sunday 23 Nov 2014 (Local Time) from CYXX Reporting Station
Light Rain Light Rain  
Wind Chill: 42°   Ceiling: 4500
Heat Index: 45°   Visibility: 15mi
Dew Point: 41°   Wind: 5mph
Humidity: 87%   Direction: 200°SSW
Pressure: 30.08"   Gusts: NA
Location:  49.22°N, 122.6°W
Report Text: CYXX 230851Z 20004KT 15SM -RA FEW025 BKN045 OVC090 07/05 A3008 RMK SC1SC5AS2 SLP186
Loading
Personal Weather Stations






























Interactive Weather Map New forecast layout! Learn more

10-Day Weather Forecast

Advertisements
Track Severe Weather on mobile